Time;durP1;ratioP1;P1;durP2;ratioP2;P2;SDS_P1;SDS_P2;PMS_P1;PMS_P2;Temp;Humidity;BMP_temperature;BMP_pressure;BME280_temperature;BME280_humidity;BME280_pressure;Samples;Min_cycle;Max_cycle;Signal;HPM_P1;HPM_P2
2022/06/15 00:01:14;;;;;;;2.40;2.30;;;20.80;57.70;;;;;;4971118;28;21264;-71
2022/06/15 00:03:41;;;;;;;3.70;2.27;;;20.70;57.70;;;;;;4972187;28;20622;-70
2022/06/15 00:06:25;;;;;;;2.40;2.00;;;20.70;57.80;;;;;;4972879;28;20619;-69
2022/06/15 00:08:54;;;;;;;2.40;2.20;;;20.60;58.10;;;;;;4972081;28;20637;-69
2022/06/15 00:11:30;;;;;;;1.80;1.70;;;20.60;58.30;;;;;;4972140;28;20746;-69
2022/06/15 00:14:00;;;;;;;4.30;2.27;;;20.60;58.40;;;;;;4971494;28;20645;-69
2022/06/15 00:16:27;;;;;;;2.10;2.00;;;20.50;58.40;;;;;;4971941;28;20598;-69
2022/06/15 00:18:54;;;;;;;3.27;2.37;;;20.50;58.60;;;;;;4971808;28;20674;-69
2022/06/15 00:21:21;;;;;;;2.30;2.20;;;20.40;59.10;;;;;;4970905;28;21252;-69
2022/06/15 00:23:50;;;;;;;2.47;2.37;;;20.50;59.20;;;;;;4985553;28;20627;-69
2022/06/15 00:26:16;;;;;;;2.07;1.97;;;20.40;59.40;;;;;;4971167;28;20626;-72
2022/06/15 00:28:43;;;;;;;3.33;2.43;;;20.40;59.40;;;;;;4970453;28;20719;-69
2022/06/15 00:31:10;;;;;;;2.30;2.20;;;20.40;59.20;;;;;;4971115;28;20663;-69
2022/06/15 00:33:37;;;;;;;2.90;2.43;;;20.30;59.60;;;;;;4969946;28;21215;-69
2022/06/15 00:36:08;;;;;;;2.77;2.50;;;20.30;59.20;;;;;;4971342;28;20639;-70
2022/06/15 00:38:46;;;;;;;2.20;2.10;;;20.30;59.20;;;;;;4970758;28;20659;-69
2022/06/15 00:41:19;;;;;;;2.40;2.30;;;20.20;59.30;;;;;;4971417;28;20691;-70
2022/06/15 00:43:55;;;;;;;2.30;2.20;;;20.30;59.30;;;;;;4972553;28;20706;-69
2022/06/15 00:46:46;;;;;;;3.10;2.10;;;20.20;59.70;;;;;;4972027;28;21187;-70
2022/06/15 00:49:27;;;;;;;2.60;2.10;;;20.10;60.10;;;;;;4972171;28;20670;-70
2022/06/15 00:52:04;;;;;;;2.30;2.20;;;20.10;59.80;;;;;;4970544;28;21014;-69
2022/06/15 00:54:31;;;;;;;2.40;2.27;;;20.20;59.60;;;;;;4971746;28;20579;-70
2022/06/15 00:57:01;;;;;;;2.60;2.40;;;20.20;59.50;;;;;;4971486;28;20616;-69
2022/06/15 00:59:54;;;;;;;2.30;2.20;;;20.20;59.70;;;;;;4972378;28;20714;-69
2022/06/15 01:02:21;;;;;;;3.17;2.20;;;20.30;59.50;;;;;;4971662;28;20663;-69
2022/06/15 01:04:52;;;;;;;2.77;2.57;;;20.10;59.70;;;;;;4972132;28;20987;-70
2022/06/15 01:07:52;;;;;;;2.67;2.10;;;20.10;60.20;;;;;;4970959;28;20635;-69
2022/06/15 01:10:34;;;;;;;2.50;2.30;;;20.10;60.30;;;;;;4971868;28;20648;-69
2022/06/15 01:13:15;;;;;;;2.77;2.57;;;20.10;60.30;;;;;;4952204;28;20623;-69
2022/06/15 01:15:58;;;;;;;2.40;2.30;;;20.00;60.70;;;;;;4953836;28;20636;-69
2022/06/15 01:18:43;;;;;;;2.77;2.57;;;19.90;61.40;;;;;;4970348;28;20686;-69
2022/06/15 01:21:35;;;;;;;3.87;2.67;;;19.90;61.50;;;;;;4970592;28;20663;-70
2022/06/15 01:24:30;;;;;;;3.27;2.00;;;19.80;61.70;;;;;;4966206;28;20651;-69
2022/06/15 01:27:24;;;;;;;1.80;1.70;;;19.80;62.10;;;;;;4970054;28;21238;-69
2022/06/15 01:30:10;;;;;;;2.43;2.27;;;19.70;62.20;;;;;;4971138;28;21227;-69
2022/06/15 01:32:37;;;;;;;3.40;2.47;;;19.70;62.40;;;;;;4968532;28;20663;-69
2022/06/15 01:35:21;;;;;;;2.17;2.07;;;19.60;62.40;;;;;;4970851;28;20619;-70
2022/06/15 01:37:58;;;;;;;2.27;2.17;;;19.60;62.40;;;;;;4969143;28;20646;-69
2022/06/15 01:40:39;;;;;;;2.00;1.90;;;19.50;62.70;;;;;;4970423;28;21161;-69
2022/06/15 01:43:12;;;;;;;2.40;2.20;;;19.40;62.80;;;;;;4970669;28;20743;-69
2022/06/15 01:45:40;;;;;;;2.80;1.93;;;19.40;62.80;;;;;;4974701;28;20623;-70
2022/06/15 01:48:11;;;;;;;2.33;2.13;;;19.40;62.80;;;;;;4974666;28;20690;-69
2022/06/15 01:50:42;;;;;;;2.13;2.03;;;19.40;62.80;;;;;;4988469;28;21245;-69
2022/06/15 01:53:18;;;;;;;1.93;1.83;;;19.30;62.70;;;;;;4973114;28;20635;-69
2022/06/15 01:56:22;;;;;;;2.87;2.10;;;19.20;62.70;;;;;;4973912;28;20719;-69
2022/06/15 01:58:54;;;;;;;3.63;1.77;;;19.10;63.00;;;;;;4971641;28;20638;-71
2022/06/15 02:01:53;;;;;;;3.83;2.50;;;19.10;63.00;;;;;;4973845;28;21210;-69
2022/06/15 02:04:50;;;;;;;6.87;2.23;;;19.10;63.10;;;;;;4972240;28;20685;-69
2022/06/15 02:07:35;;;;;;;2.20;2.00;;;19.00;63.40;;;;;;4958870;28;20639;-69
2022/06/15 02:10:22;;;;;;;3.03;2.10;;;19.00;63.60;;;;;;4973576;28;20670;-69
2022/06/15 02:13:04;;;;;;;2.50;2.23;;;18.90;63.80;;;;;;4960217;28;20635;-69
2022/06/15 02:15:33;;;;;;;2.17;2.07;;;19.00;63.90;;;;;;4973503;28;20613;-69
2022/06/15 02:18:07;;;;;;;2.83;2.50;;;18.90;64.30;;;;;;4973510;28;20631;-69
2022/06/15 02:20:38;;;;;;;2.30;2.20;;;18.90;64.50;;;;;;4974769;28;21061;-69
2022/06/15 02:23:11;;;;;;;2.33;2.13;;;18.90;64.90;;;;;;4972546;28;20611;-71
2022/06/15 02:25:42;;;;;;;2.67;2.50;;;19.00;64.90;;;;;;4973879;28;20730;-69
2022/06/15 02:28:10;;;;;;;2.93;2.50;;;18.90;64.90;;;;;;4972619;28;21213;-70
2022/06/15 02:30:37;;;;;;;3.10;2.23;;;18.90;64.80;;;;;;4972781;28;20685;-69
2022/06/15 02:33:31;;;;;;;2.40;2.20;;;18.90;65.00;;;;;;4972070;28;20670;-70
2022/06/15 02:36:00;;;;;;;2.80;2.43;;;18.70;65.40;;;;;;4973528;28;20626;-70
2022/06/15 02:38:29;;;;;;;3.37;2.60;;;18.70;65.60;;;;;;4971351;28;20632;-69
2022/06/15 02:40:55;;;;;;;7.17;2.50;;;18.70;65.60;;;;;;4973175;28;20754;-70
2022/06/15 02:43:27;;;;;;;2.53;2.10;;;18.70;65.80;;;;;;4970876;28;20642;-69
2022/06/15 02:45:57;;;;;;;3.40;2.73;;;18.60;66.00;;;;;;4968909;28;20979;-69
2022/06/15 02:48:31;;;;;;;2.50;2.30;;;18.60;66.30;;;;;;4986560;28;20634;-69
2022/06/15 02:51:07;;;;;;;2.70;2.47;;;18.70;66.20;;;;;;4972868;28;21133;-69
2022/06/15 02:53:37;;;;;;;6.00;2.80;;;18.70;66.20;;;;;;4973175;28;20618;-70
2022/06/15 02:56:05;;;;;;;2.50;2.40;;;18.80;66.20;;;;;;4970273;28;20638;-69
2022/06/15 02:58:35;;;;;;;6.53;2.53;;;18.80;65.90;;;;;;4972722;28;20719;-72
2022/06/15 03:01:03;;;;;;;2.43;2.33;;;18.70;66.40;;;;;;4972035;28;20759;-70
2022/06/15 03:03:31;;;;;;;3.60;2.70;;;18.50;66.70;;;;;;4973249;28;20631;-69
2022/06/15 03:05:58;;;;;;;2.60;2.40;;;18.50;67.20;;;;;;4971981;28;20625;-70
2022/06/15 03:08:25;;;;;;;3.00;2.70;;;18.30;67.40;;;;;;4971520;28;20643;-68
2022/06/15 03:10:53;;;;;;;2.63;2.43;;;18.20;68.20;;;;;;4972412;28;20832;-70
2022/06/15 03:13:20;;;;;;;2.83;2.63;;;18.00;68.80;;;;;;4971879;28;20998;-69
2022/06/15 03:15:48;;;;;;;3.30;2.53;;;17.90;69.20;;;;;;4972743;28;20615;-70
2022/06/15 03:18:15;;;;;;;2.30;2.13;;;18.00;69.40;;;;;;4972791;28;20623;-70
2022/06/15 03:20:42;;;;;;;2.63;2.43;;;18.00;69.60;;;;;;4972769;28;20669;-69
2022/06/15 03:23:09;;;;;;;2.57;2.37;;;17.90;69.80;;;;;;4972932;28;20625;-69
2022/06/15 03:25:37;;;;;;;2.90;2.70;;;17.90;69.90;;;;;;4972201;28;20665;-69
2022/06/15 03:28:04;;;;;;;5.43;2.80;;;17.80;70.60;;;;;;4972014;28;20723;-68
2022/06/15 03:30:31;;;;;;;6.30;2.80;;;17.90;71.00;;;;;;4971595;28;20674;-68
2022/06/15 03:32:58;;;;;;;2.10;2.00;;;17.90;70.80;;;;;;4966674;28;20738;-68
2022/06/15 03:35:36;;;;;;;4.37;2.47;;;17.80;71.30;;;;;;4971528;28;21183;-68
2022/06/15 03:38:03;;;;;;;3.20;2.90;;;17.90;71.70;;;;;;4971717;28;20734;-69
2022/06/15 03:40:30;;;;;;;2.70;2.50;;;18.00;71.20;;;;;;4970939;28;20641;-69
2022/06/15 03:42:57;;;;;;;3.30;3.00;;;18.10;71.40;;;;;;4971297;28;21036;-70
2022/06/15 03:45:25;;;;;;;6.20;3.00;;;18.10;71.20;;;;;;4970647;28;20642;-69
2022/06/15 03:47:55;;;;;;;4.70;2.87;;;18.20;71.20;;;;;;4971822;28;20681;-69
2022/06/15 03:50:23;;;;;;;3.50;3.20;;;18.40;71.10;;;;;;4970938;28;20721;-70
2022/06/15 03:52:51;;;;;;;3.33;2.27;;;18.40;71.00;;;;;;4972613;28;20624;-69
2022/06/15 03:55:25;;;;;;;3.43;2.87;;;18.50;70.70;;;;;;4972180;28;20622;-69
2022/06/15 03:57:51;;;;;;;3.07;2.77;;;18.70;70.50;;;;;;4973223;28;20719;-69
2022/06/15 04:00:22;;;;;;;2.40;2.20;;;18.70;70.30;;;;;;4969988;28;20643;-69
2022/06/15 04:02:49;;;;;;;2.60;2.50;;;18.80;70.40;;;;;;4970947;28;21285;-69
2022/06/15 04:05:19;;;;;;;2.87;2.67;;;18.90;70.70;;;;;;4971579;28;20714;-70
2022/06/15 04:10:31;;;;;;;2.80;2.60;;;19.10;70.00;;;;;;4973995;28;20667;-69
2022/06/15 04:12:57;;;;;;;2.87;2.63;;;19.40;69.20;;;;;;4971940;28;20662;-71
2022/06/15 04:15:24;;;;;;;3.40;3.10;;;19.50;68.90;;;;;;4970550;28;20635;-69
2022/06/15 04:17:51;;;;;;;3.13;2.70;;;19.60;68.80;;;;;;4971726;28;20610;-69
2022/06/15 04:20:32;;;;;;;2.50;2.40;;;19.80;68.30;;;;;;4972129;28;21123;-70
2022/06/15 04:23:06;;;;;;;2.60;2.47;;;20.10;67.80;;;;;;4972175;28;20662;-69
2022/06/15 04:25:37;;;;;;;3.13;2.93;;;20.30;67.10;;;;;;4972294;28;20626;-69
2022/06/15 04:28:05;;;;;;;4.00;2.93;;;20.50;66.70;;;;;;4955390;28;20607;-69
2022/06/15 04:30:32;;;;;;;3.30;3.00;;;20.70;66.30;;;;;;4969857;28;20667;-69
2022/06/15 04:32:59;;;;;;;3.20;3.00;;;20.90;65.80;;;;;;4969744;28;20722;-69
2022/06/15 04:35:26;;;;;;;2.97;2.67;;;21.10;65.50;;;;;;4970295;28;20645;-69
2022/06/15 04:37:54;;;;;;;5.07;2.70;;;21.20;65.30;;;;;;4970809;28;20619;-69
2022/06/15 04:40:21;;;;;;;3.00;2.80;;;21.30;64.90;;;;;;4970089;28;20638;-69
2022/06/15 04:42:47;;;;;;;3.70;3.10;;;21.50;64.50;;;;;;4968120;28;20657;-68
2022/06/15 04:45:16;;;;;;;2.93;2.73;;;21.70;64.20;;;;;;4969141;28;20669;-70
2022/06/15 04:47:43;;;;;;;2.27;2.10;;;21.90;63.40;;;;;;4970782;28;20620;-68
2022/06/15 04:50:13;;;;;;;3.37;2.57;;;22.00;62.70;;;;;;4971850;28;20607;-68
2022/06/15 04:52:41;;;;;;;2.87;2.37;;;22.20;62.30;;;;;;4971448;28;20662;-68
2022/06/15 04:55:11;;;;;;;2.50;2.40;;;22.30;62.20;;;;;;4972274;28;20615;-68
2022/06/15 04:57:38;;;;;;;2.77;2.53;;;22.50;62.00;;;;;;4971088;28;20615;-68
2022/06/15 05:00:08;;;;;;;2.40;2.23;;;22.60;61.60;;;;;;4970656;28;20635;-69
2022/06/15 05:02:35;;;;;;;4.43;2.40;;;22.80;61.30;;;;;;4971413;28;20654;-69
2022/06/15 05:05:03;;;;;;;3.33;2.17;;;22.90;61.00;;;;;;4970792;28;20682;-68
2022/06/15 05:07:30;;;;;;;3.10;2.80;;;22.90;60.90;;;;;;4972078;28;20619;-69
2022/06/15 05:09:56;;;;;;;3.80;2.80;;;23.10;60.80;;;;;;4969156;28;20639;-68
2022/06/15 05:12:24;;;;;;;2.70;2.50;;;23.20;60.50;;;;;;4971955;28;20667;-69
2022/06/15 05:14:51;;;;;;;2.60;2.50;;;23.30;60.50;;;;;;4971127;28;20629;-68
2022/06/15 05:17:20;;;;;;;4.83;2.70;;;23.50;60.20;;;;;;4971418;28;20619;-68
2022/06/15 05:19:47;;;;;;;5.90;3.00;;;23.70;59.90;;;;;;4974762;28;21452;-68
2022/06/15 05:22:14;;;;;;;3.17;2.70;;;23.70;59.90;;;;;;4973856;28;20683;-69
2022/06/15 05:24:41;;;;;;;2.77;2.57;;;23.90;59.50;;;;;;4974505;28;21175;-68
2022/06/15 05:27:08;;;;;;;5.87;2.87;;;24.10;58.90;;;;;;4973921;28;21100;-69
2022/06/15 05:29:37;;;;;;;2.40;2.20;;;24.30;58.60;;;;;;4974147;28;20615;-69
2022/06/15 05:32:05;;;;;;;2.97;2.80;;;24.40;58.00;;;;;;4973509;28;21252;-69
2022/06/15 05:34:33;;;;;;;3.10;2.80;;;24.60;58.00;;;;;;4973457;28;20714;-68
2022/06/15 05:37:01;;;;;;;4.77;2.40;;;24.50;57.40;;;;;;4954335;28;20612;-69
2022/06/15 05:39:27;;;;;;;5.03;2.50;;;24.70;57.30;;;;;;4970780;28;20901;-68
2022/06/15 05:41:54;;;;;;;2.93;2.73;;;25.00;56.90;;;;;;4974066;28;20665;-68
2022/06/15 05:46:58;;;;;;;3.67;2.80;;;25.50;55.40;;;;;;4975401;28;21230;-69
2022/06/15 05:49:26;;;;;;;3.00;2.73;;;25.50;55.40;;;;;;4973084;28;20650;-69
2022/06/15 05:51:53;;;;;;;3.50;2.60;;;25.70;54.90;;;;;;4973403;28;21054;-68
2022/06/15 05:54:21;;;;;;;2.87;2.67;;;25.90;54.60;;;;;;4973774;28;20627;-69
2022/06/15 05:56:47;;;;;;;2.77;2.57;;;26.10;54.20;;;;;;4974896;28;20602;-69
2022/06/15 05:59:14;;;;;;;4.93;3.07;;;26.30;54.50;;;;;;4973335;28;20653;-69
2022/06/15 06:01:42;;;;;;;2.90;2.60;;;26.70;53.80;;;;;;4974733;28;20645;-69
2022/06/15 06:04:16;;;;;;;3.80;2.97;;;27.00;53.30;;;;;;4974735;28;20618;-67
2022/06/15 06:06:43;;;;;;;4.20;2.93;;;27.40;52.80;;;;;;4971192;28;20959;-69
2022/06/15 06:09:10;;;;;;;4.27;2.90;;;27.80;52.20;;;;;;4971415;28;20631;-69
2022/06/15 06:11:37;;;;;;;3.03;2.70;;;28.20;51.60;;;;;;4972476;28;20757;-69
2022/06/15 06:14:04;;;;;;;3.20;2.80;;;28.60;51.10;;;;;;4973844;28;20634;-69
2022/06/15 06:16:31;;;;;;;4.87;2.80;;;29.10;50.40;;;;;;4973739;28;20806;-69
2022/06/15 06:18:58;;;;;;;2.80;2.30;;;29.70;49.50;;;;;;4972909;28;20635;-69
2022/06/15 06:21:25;;;;;;;2.97;2.63;;;30.10;48.80;;;;;;4971873;28;20670;-69
2022/06/15 06:23:51;;;;;;;3.47;3.07;;;30.70;48.40;;;;;;4966252;28;20726;-68
2022/06/15 06:26:23;;;;;;;4.90;2.70;;;31.40;47.70;;;;;;4975022;28;21167;-69
2022/06/15 06:28:51;;;;;;;5.90;2.50;;;32.10;46.60;;;;;;4957727;28;20643;-69
2022/06/15 06:31:21;;;;;;;3.90;2.43;;;32.70;45.70;;;;;;4969031;28;20674;-69
2022/06/15 06:33:49;;;;;;;3.87;2.40;;;33.20;45.10;;;;;;4967390;28;20639;-69
2022/06/15 06:36:24;;;;;;;2.90;2.70;;;33.80;44.30;;;;;;4968277;28;20640;-69
2022/06/15 06:38:51;;;;;;;7.40;2.27;;;34.60;43.70;;;;;;4967787;28;20634;-70
2022/06/15 06:41:21;;;;;;;3.17;2.63;;;35.40;43.00;;;;;;4972287;28;20727;-69
2022/06/15 06:43:47;;;;;;;2.60;2.50;;;36.10;42.20;;;;;;4972296;28;20661;-69
2022/06/15 06:46:15;;;;;;;2.83;2.70;;;36.90;41.40;;;;;;4964482;28;20616;-69
2022/06/15 06:48:42;;;;;;;4.20;3.20;;;37.60;40.60;;;;;;4961070;28;20657;-69
2022/06/15 06:51:09;;;;;;;6.47;3.30;;;37.80;40.30;;;;;;4975314;28;21222;-69
2022/06/15 06:53:36;;;;;;;3.10;2.90;;;38.00;39.90;;;;;;4965146;28;20619;-69
2022/06/15 06:56:05;;;;;;;3.27;2.97;;;38.70;39.50;;;;;;4961704;28;20638;-68
2022/06/15 06:58:33;;;;;;;3.13;2.83;;;39.30;38.90;;;;;;4973768;28;20623;-69
2022/06/15 07:01:00;;;;;;;3.20;3.00;;;39.90;38.50;;;;;;4971791;28;20640;-69
2022/06/15 07:03:28;;;;;;;3.20;3.00;;;40.80;38.10;;;;;;4973915;28;20611;-69
2022/06/15 07:06:00;;;;;;;3.40;3.10;;;41.20;37.10;;;;;;4971055;28;21234;-69
2022/06/15 07:08:27;;;;;;;4.73;3.30;;;41.60;37.00;;;;;;4970787;28;21101;-70
2022/06/15 07:10:54;;;;;;;3.50;3.20;;;42.10;36.60;;;;;;4972439;28;20754;-69
2022/06/15 07:13:21;;;;;;;6.13;3.30;;;42.60;36.30;;;;;;4972588;28;20615;-69
2022/06/15 07:15:48;;;;;;;5.47;3.00;;;43.00;35.90;;;;;;4973106;28;20702;-69
2022/06/15 07:18:16;;;;;;;2.80;2.70;;;43.60;35.60;;;;;;4972977;28;20981;-69
2022/06/15 07:20:43;;;;;;;4.10;3.30;;;44.30;35.20;;;;;;4964315;28;21262;-69
2022/06/15 07:23:10;;;;;;;2.90;2.80;;;44.70;34.80;;;;;;4966271;28;21196;-69
2022/06/15 07:25:37;;;;;;;3.30;3.00;;;45.00;34.60;;;;;;4971767;28;20727;-68
2022/06/15 07:28:04;;;;;;;3.23;3.03;;;45.20;34.30;;;;;;4972032;28;20623;-68
2022/06/15 07:30:31;;;;;;;3.10;3.00;;;45.10;34.40;;;;;;4973148;28;20641;-68
2022/06/15 07:32:57;;;;;;;8.20;3.07;;;45.40;34.30;;;;;;4971986;28;21030;-68
2022/06/15 07:35:31;;;;;;;4.33;3.27;;;45.80;34.10;;;;;;4971315;28;20635;-70
2022/06/15 07:37:58;;;;;;;5.90;2.77;;;45.80;33.70;;;;;;4972089;28;20842;-69
2022/06/15 07:40:45;;;;;;;2.70;2.50;;;45.90;33.80;;;;;;4973368;28;20670;-68
2022/06/15 07:43:12;;;;;;;3.77;2.90;;;46.40;33.60;;;;;;4969609;28;20669;-68
2022/06/15 07:45:40;;;;;;;3.43;2.90;;;46.70;33.10;;;;;;4971405;28;20730;-68
2022/06/15 07:50:53;;;;;;;3.53;2.93;;;47.80;32.60;;;;;;4972363;28;21320;-68
2022/06/15 07:53:20;;;;;;;3.33;3.20;;;48.00;32.30;;;;;;4974302;28;20643;-68
2022/06/15 07:55:47;;;;;;;3.03;2.93;;;48.20;32.20;;;;;;4980683;28;21005;-68
2022/06/15 07:58:16;;;;;;;3.30;3.10;;;48.20;32.00;;;;;;4978969;28;20725;-68
2022/06/15 08:00:45;;;;;;;3.70;3.50;;;48.30;31.70;;;;;;4979200;28;20658;-69
2022/06/15 08:03:12;;;;;;;3.30;3.10;;;48.40;31.60;;;;;;4981427;28;20726;-67
2022/06/15 08:05:44;;;;;;;4.63;3.60;;;48.60;31.70;;;;;;4980512;28;21209;-69
2022/06/15 08:08:17;;;;;;;5.43;4.20;;;48.80;31.30;;;;;;4982225;28;20734;-69
2022/06/15 08:10:44;;;;;;;5.87;5.47;;;49.10;31.10;;;;;;4971943;28;20650;-68
2022/06/15 08:13:11;;;;;;;4.70;4.40;;;49.00;30.80;;;;;;4970593;28;20702;-69
2022/06/15 08:15:38;;;;;;;5.07;4.67;;;49.40;30.90;;;;;;4971360;28;21107;-69
2022/06/15 08:18:10;;;;;;;4.87;4.20;;;49.50;30.90;;;;;;4971089;28;20709;-66
2022/06/15 08:20:43;;;;;;;4.00;3.67;;;49.70;31.00;;;;;;4970615;28;21044;-69
2022/06/15 08:23:14;;;;;;;5.60;4.30;;;49.70;30.80;;;;;;4969035;28;20647;-69
2022/06/15 08:25:46;;;;;;;6.40;5.50;;;49.80;30.80;;;;;;4969859;28;21201;-69
2022/06/15 08:28:14;;;;;;;5.20;4.80;;;50.00;30.60;;;;;;4980932;28;20632;-69
2022/06/15 08:30:47;;;;;;;6.37;5.97;;;49.60;30.80;;;;;;4990407;28;20661;-70
2022/06/15 08:33:15;;;;;;;5.10;4.70;;;49.90;30.70;;;;;;4971915;28;20674;-70
2022/06/15 08:35:42;;;;;;;4.53;4.23;;;50.40;30.50;;;;;;4969784;28;20630;-71
2022/06/15 08:38:12;;;;;;;5.07;4.50;;;50.10;30.40;;;;;;4970206;28;21212;-69
2022/06/15 08:40:52;;;;;;;8.83;4.33;;;49.60;30.70;;;;;;4968874;28;20708;-69
2022/06/15 08:44:06;;;;;;;6.50;4.57;;;49.10;30.70;;;;;;4970662;28;21014;-68
2022/06/15 08:47:08;;;;;;;5.30;4.00;;;49.00;30.90;;;;;;4931505;29;20691;-69
2022/06/15 08:49:56;;;;;;;4.77;4.37;;;49.30;30.70;;;;;;4927806;29;21082;-69
2022/06/15 08:52:37;;;;;;;5.47;4.73;;;50.00;30.60;;;;;;4951399;28;20690;-70
2022/06/15 08:55:24;;;;;;;6.30;4.20;;;51.40;30.20;;;;;;4967740;28;20614;-69
2022/06/15 08:57:57;;;;;;;5.77;5.27;;;52.00;30.00;;;;;;4975641;28;20618;-69
2022/06/15 09:00:32;;;;;;;4.77;4.50;;;52.40;29.90;;;;;;4975773;28;20614;-69
2022/06/15 09:03:12;;;;;;;5.20;4.53;;;52.50;29.70;;;;;;4976218;28;21176;-68
2022/06/15 09:05:51;;;;;;;4.50;4.20;;;52.90;29.70;;;;;;4974848;28;21245;-69
2022/06/15 09:08:33;;;;;;;5.20;4.90;;;52.70;29.70;;;;;;4972817;28;20741;-71
2022/06/15 09:11:13;;;;;;;5.53;5.23;;;52.30;29.60;;;;;;4973929;28;20662;-70
2022/06/15 09:14:00;;;;;;;5.53;4.87;;;52.50;29.70;;;;;;4975165;28;20689;-69
2022/06/15 09:16:37;;;;;;;5.70;4.93;;;53.00;29.50;;;;;;4974598;28;20669;-71
2022/06/15 09:19:10;;;;;;;4.37;4.17;;;53.40;29.40;;;;;;4975260;28;20617;-70
2022/06/15 09:21:47;;;;;;;6.50;4.63;;;53.80;29.50;;;;;;4973152;28;20664;-71
2022/06/15 09:24:21;;;;;;;4.67;4.30;;;54.00;29.40;;;;;;4976980;28;21205;-69
2022/06/15 09:27:00;;;;;;;5.40;5.00;;;54.50;29.30;;;;;;4960955;28;20615;-70
2022/06/15 09:29:34;;;;;;;5.17;4.87;;;55.00;29.20;;;;;;4971673;28;20290;-68
2022/06/15 09:32:04;;;;;;;14.00;5.07;;;55.20;29.10;;;;;;4975365;28;20690;-69
2022/06/15 09:34:36;;;;;;;5.60;5.20;;;55.50;29.00;;;;;;4974018;28;20343;-70
2022/06/15 09:37:15;;;;;;;5.30;4.97;;;55.40;28.80;;;;;;4974543;28;20211;-69
2022/06/15 09:39:42;;;;;;;7.50;5.00;;;55.40;29.00;;;;;;4976975;28;20630;-68
2022/06/15 09:42:38;;;;;;;4.22;4.10;;;54.90;28.90;;;;;;4970870;28;20245;-71
2022/06/15 09:45:08;;;;;;;4.40;4.13;;;54.90;28.90;;;;;;4968364;28;20218;-67
2022/06/15 09:48:07;;;;;;;5.43;4.85;;;55.00;28.90;;;;;;4975036;28;20238;-66
2022/06/15 09:50:37;;;;;;;5.87;4.63;;;55.00;28.90;;;;;;4972748;28;20213;-66
2022/06/15 09:53:53;;;;;;;5.32;4.88;;;54.70;28.90;;;;;;4973373;28;20227;-65
2022/06/15 09:56:21;;;;;;;4.80;4.40;;;54.10;29.30;;;;;;4969757;28;20660;-69
2022/06/15 09:58:58;;;;;;;4.90;4.37;;;53.70;28.90;;;;;;4970054;28;20246;-66
2022/06/15 10:01:28;;;;;;;5.40;4.33;;;53.00;29.00;;;;;;4990672;28;20313;-66
2022/06/15 10:03:57;;;;;;;5.17;4.63;;;51.90;29.30;;;;;;4994354;28;21063;-66
2022/06/15 10:06:33;;;;;;;5.97;5.40;;;51.50;29.60;;;;;;4978179;28;20634;-67
2022/06/15 10:09:04;;;;;;;6.13;5.63;;;50.70;29.80;;;;;;4966740;28;21288;-66
2022/06/15 10:11:41;;;;;;;10.30;5.77;;;50.00;30.50;;;;;;4972631;28;21240;-66
2022/06/15 10:14:36;;;;;;;6.10;5.50;;;49.40;30.00;;;;;;4973336;28;20621;-67
2022/06/15 10:17:22;;;;;;;6.87;5.20;;;48.20;30.70;;;;;;4971957;28;20643;-67
2022/06/15 10:19:51;;;;;;;5.60;5.20;;;46.70;31.50;;;;;;4973266;28;20654;-66
2022/06/15 10:22:29;;;;;;;5.30;4.80;;;44.80;32.00;;;;;;4969171;28;20665;-66
2022/06/15 10:24:57;;;;;;;7.23;5.13;;;43.10;32.80;;;;;;4971690;28;20633;-66
2022/06/15 10:27:24;;;;;;;6.37;5.70;;;41.20;34.00;;;;;;4979210;28;21213;-66
2022/06/15 10:29:59;;;;;;;6.60;4.50;;;39.50;35.10;;;;;;4976271;28;20653;-67
2022/06/15 10:32:27;;;;;;;10.57;4.83;;;38.10;36.10;;;;;;4967475;28;21257;-66
2022/06/15 10:35:17;;;;;;;5.57;4.70;;;36.60;37.60;;;;;;4967074;28;20633;-66
2022/06/15 10:37:57;;;;;;;5.70;5.17;;;35.40;38.50;;;;;;4974990;28;20629;-65
2022/06/15 10:40:33;;;;;;;6.27;4.90;;;35.00;39.40;;;;;;4973453;28;20624;-65
2022/06/15 10:43:05;;;;;;;7.20;5.37;;;34.70;39.20;;;;;;4970903;28;20642;-63
2022/06/15 10:45:42;;;;;;;8.63;5.10;;;34.20;39.70;;;;;;4972986;28;20714;-66
2022/06/15 10:48:17;;;;;;;5.30;4.80;;;34.00;40.40;;;;;;4973286;28;20650;-68
2022/06/15 10:50:50;;;;;;;18.50;14.10;;;33.80;40.90;;;;;;4973198;28;20647;-66
2022/06/15 10:54:15;;;;;;;8.57;6.10;;;33.70;40.70;;;;;;4973776;28;21031;-68
2022/06/15 11:02:37;;;;;;;11.10;5.73;;;32.80;41.60;;;;;;4973714;28;21425;-64
2022/06/15 11:05:18;;;;;;;6.17;4.90;;;32.70;41.80;;;;;;4961894;28;20623;-65
2022/06/15 11:07:47;;;;;;;8.70;4.77;;;32.50;41.70;;;;;;4973890;28;20637;-65
2022/06/15 11:10:34;;;;;;;5.87;5.33;;;32.10;41.90;;;;;;4973438;28;20627;-65
2022/06/15 11:13:02;;;;;;;6.67;5.27;;;31.90;42.70;;;;;;4973559;28;20717;-65
2022/06/15 11:18:37;;;;;;;6.63;5.80;;;31.40;43.20;;;;;;4972486;28;20611;-67
2022/06/15 11:21:06;;;;;;;6.47;5.63;;;31.30;43.40;;;;;;4970597;28;21219;-65
2022/06/15 11:23:57;;;;;;;5.70;5.00;;;31.30;43.40;;;;;;4973089;28;20627;-65
2022/06/15 11:26:57;;;;;;;7.47;5.13;;;31.20;43.60;;;;;;4961111;28;20623;-66
2022/06/15 11:29:42;;;;;;;7.53;5.53;;;31.10;43.40;;;;;;4972852;28;20721;-66
2022/06/15 11:32:34;;;;;;;7.13;4.97;;;30.80;44.30;;;;;;4973287;28;20642;-67
2022/06/15 11:35:05;;;;;;;5.13;4.57;;;30.70;44.50;;;;;;4961977;28;20623;-67
2022/06/15 11:37:48;;;;;;;4.27;3.87;;;30.60;44.80;;;;;;4972873;28;20966;-66
2022/06/15 11:40:39;;;;;;;5.13;4.70;;;30.60;44.60;;;;;;4972393;28;20992;-68
2022/06/15 11:43:43;;;;;;;8.20;5.07;;;30.60;44.70;;;;;;4969252;28;20631;-67
2022/06/15 11:46:23;;;;;;;6.03;5.17;;;30.60;44.50;;;;;;4972543;28;21191;-66
2022/06/15 11:49:11;;;;;;;8.30;5.30;;;30.70;44.10;;;;;;4972850;28;20629;-67
2022/06/15 11:51:54;;;;;;;5.93;5.30;;;30.60;44.50;;;;;;4972936;28;20647;-67
2022/06/15 11:54:42;;;;;;;7.27;5.90;;;30.60;44.70;;;;;;4972779;28;20623;-66
2022/06/15 11:57:34;;;;;;;6.13;5.40;;;30.50;45.30;;;;;;4972886;28;20620;-68
2022/06/15 12:00:13;;;;;;;6.50;5.03;;;30.50;45.40;;;;;;4972764;28;20631;-67
2022/06/15 12:02:56;;;;;;;6.20;5.07;;;30.50;45.90;;;;;;4960580;28;21285;-69
2022/06/15 12:05:34;;;;;;;5.50;5.00;;;30.50;45.00;;;;;;4972693;28;20625;-67
2022/06/15 12:08:10;;;;;;;6.77;6.03;;;30.30;44.90;;;;;;4972189;28;20726;-68
2022/06/15 12:10:52;;;;;;;11.43;5.43;;;30.30;45.70;;;;;;4972353;28;20625;-67
2022/06/15 12:13:51;;;;;;;6.17;4.93;;;30.20;45.30;;;;;;4972788;28;20665;-66
2022/06/15 12:16:39;;;;;;;5.63;4.73;;;30.30;45.30;;;;;;4972486;28;20718;-68
2022/06/15 12:19:17;;;;;;;12.20;4.70;;;30.10;45.40;;;;;;4972129;28;20619;-67
2022/06/15 12:22:15;;;;;;;8.37;5.77;;;30.10;45.70;;;;;;4972625;28;20745;-69
2022/06/15 12:24:48;;;;;;;5.07;4.50;;;30.10;45.80;;;;;;4959803;28;20969;-67
2022/06/15 12:27:40;;;;;;;4.93;4.40;;;30.10;45.70;;;;;;4971762;28;21002;-67
2022/06/15 12:30:07;;;;;;;11.40;5.47;;;30.10;45.60;;;;;;4972188;28;20658;-67
2022/06/15 12:32:41;;;;;;;6.03;4.07;;;30.10;44.60;;;;;;4972164;28;20729;-68
2022/06/15 12:35:14;;;;;;;6.00;4.23;;;30.10;44.40;;;;;;4971311;28;20615;-68
2022/06/15 12:37:55;;;;;;;4.53;4.13;;;30.10;44.40;;;;;;4972119;28;20616;-67
2022/06/15 12:40:50;;;;;;;9.33;3.63;;;30.10;44.10;;;;;;4972242;28;20629;-67
2022/06/15 12:43:28;;;;;;;7.83;3.90;;;30.10;44.20;;;;;;4971539;28;20746;-67
2022/06/15 12:46:16;;;;;;;7.27;4.60;;;30.20;44.50;;;;;;4972229;28;20627;-67
2022/06/15 12:49:05;;;;;;;7.27;4.83;;;30.20;43.70;;;;;;4972199;28;20710;-67
2022/06/15 12:51:56;;;;;;;6.70;4.40;;;30.10;43.80;;;;;;4970952;28;20643;-67
2022/06/15 12:54:52;;;;;;;4.90;3.70;;;30.20;44.00;;;;;;4971933;28;20867;-67
2022/06/15 12:57:35;;;;;;;7.20;3.90;;;30.20;43.60;;;;;;4961603;28;20645;-67
2022/06/15 13:00:12;;;;;;;11.03;3.57;;;30.20;43.70;;;;;;4966579;28;20985;-67
2022/06/15 13:02:52;;;;;;;5.37;3.97;;;30.30;43.00;;;;;;4968489;28;20653;-67
2022/06/15 13:05:32;;;;;;;3.53;3.33;;;30.20;43.00;;;;;;4969196;28;20645;-68
2022/06/15 13:08:32;;;;;;;5.77;3.40;;;30.30;42.70;;;;;;4970694;28;20722;-68
2022/06/15 13:11:12;;;;;;;5.83;3.50;;;30.40;41.80;;;;;;4966000;28;20667;-67
2022/06/15 13:13:48;;;;;;;4.13;3.50;;;30.50;41.40;;;;;;4969703;28;20742;-67
2022/06/15 13:16:33;;;;;;;3.30;3.00;;;30.50;41.30;;;;;;4971214;28;20630;-67
2022/06/15 13:19:03;;;;;;;4.50;3.40;;;30.40;41.20;;;;;;4972007;28;20615;-67
2022/06/15 13:21:51;;;;;;;3.03;2.93;;;30.30;40.70;;;;;;4970267;28;20702;-67
2022/06/15 13:24:18;;;;;;;3.10;2.80;;;30.20;40.20;;;;;;4969783;28;20730;-69
2022/06/15 13:26:56;;;;;;;3.87;3.50;;;30.20;39.60;;;;;;4967115;28;20731;-70
2022/06/15 13:29:27;;;;;;;4.03;3.63;;;30.20;41.10;;;;;;4974380;28;20745;-68
2022/06/15 13:32:01;;;;;;;18.77;11.70;;;30.10;41.00;;;;;;4979658;28;20641;-67
2022/06/15 13:34:34;;;;;;;3.30;3.00;;;30.00;38.70;;;;;;4978363;28;20684;-69
2022/06/15 13:37:20;;;;;;;4.30;2.73;;;30.00;39.70;;;;;;4984671;28;20642;-70
2022/06/15 13:39:50;;;;;;;3.70;3.40;;;30.10;38.70;;;;;;4993437;28;20614;-68